Time;durP1;ratioP1;P1;durP2;ratioP2;P2;SDS_P1;SDS_P2;PMS_P1;PMS_P2;Temp;Humidity;BMP_temperature;BMP_pressure;BME280_temperature;BME280_humidity;BME280_pressure;Samples;Min_cycle;Max_cycle;Signal;HPM_P1;HPM_P2
2021/09/27 00:02:22;;;;;;;;;18.00;13.50;;;;;-146.80;100.00;64830.25;5077165;27;45360;-65
2021/09/27 00:04:47;;;;;;;;;12.50;11.25;;;;;-146.80;100.00;64830.25;5076709;27;46227;-64
2021/09/27 00:07:12;;;;;;;;;14.00;12.50;;;;;-146.80;100.00;64830.25;5076628;27;45414;-63
2021/09/27 00:09:38;;;;;;;;;14.50;12.50;;;;;-146.80;100.00;64830.25;5076567;27;45447;-65
2021/09/27 00:12:06;;;;;;;;;15.75;13.25;;;;;-146.80;100.00;64830.25;5076786;27;45654;-65
2021/09/27 00:14:33;;;;;;;;;13.00;11.00;;;;;-146.80;100.00;64830.25;5076368;27;47308;-64
2021/09/27 00:17:00;;;;;;;;;15.50;12.50;;;;;-146.80;100.00;64830.25;5058173;28;45362;-64
2021/09/27 00:19:26;;;;;;;;;10.75;10.50;;;;;-146.80;100.00;64830.25;5076332;27;45291;-64
2021/09/27 00:21:54;;;;;;;;;18.00;13.25;;;;;-146.80;100.00;64830.25;5076606;27;45959;-65
2021/09/27 00:24:20;;;;;;;;;12.50;11.50;;;;;-146.80;100.00;64830.25;5076150;27;45527;-63
2021/09/27 00:26:46;;;;;;;;;13.25;11.25;;;;;-146.80;100.00;64830.25;5076173;27;45259;-64
2021/09/27 00:29:12;;;;;;;;;15.00;11.75;;;;;-146.80;100.00;64830.25;5092269;27;45418;-65
2021/09/27 00:31:38;;;;;;;;;12.25;12.25;;;;;-146.80;100.00;64830.25;5076850;27;45500;-65
2021/09/27 00:34:03;;;;;;;;;12.75;10.50;;;;;-146.80;100.00;64830.25;5074475;27;46835;-65
2021/09/27 00:36:29;;;;;;;;;12.25;11.00;;;;;-146.80;100.00;64830.25;5092300;27;45800;-64
2021/09/27 00:38:55;;;;;;;;;12.00;10.25;;;;;-146.80;100.00;64830.25;5076229;27;45319;-64
2021/09/27 00:41:21;;;;;;;;;16.50;13.75;;;;;-146.80;100.00;64830.25;5076206;28;45246;-63
2021/09/27 00:43:49;;;;;;;;;13.50;12.50;;;;;-146.80;100.00;64830.25;5075588;27;46383;-63
2021/09/27 00:46:20;;;;;;;;;9.75;9.75;;;;;-146.80;100.00;64830.25;5075649;27;45381;-63
2021/09/27 00:48:46;;;;;;;;;13.25;10.00;;;;;-146.80;100.00;64830.25;5075986;27;45343;-64
2021/09/27 00:51:16;;;;;;;;;12.50;11.00;;;;;-146.80;100.00;64830.25;5076336;27;45310;-64
2021/09/27 00:53:45;;;;;;;;;12.25;11.50;;;;;-146.80;100.00;64830.25;5074025;27;45727;-65
2021/09/27 00:56:13;;;;;;;;;12.00;12.00;;;;;-146.80;100.00;64830.25;5076005;27;45255;-65
2021/09/27 00:58:38;;;;;;;;;16.50;14.75;;;;;-146.80;100.00;64830.25;5076182;27;45410;-64
2021/09/27 01:01:06;;;;;;;;;11.00;9.00;;;;;-146.80;100.00;64830.25;5092061;27;45450;-65
2021/09/27 01:03:32;;;;;;;;;16.50;13.00;;;;;-146.80;100.00;64830.25;5076179;28;45366;-64
2021/09/27 01:06:17;;;;;;;;;14.00;12.00;;;;;-146.80;100.00;64830.25;5091549;27;45378;-64
2021/09/27 01:09:09;;;;;;;;;11.00;10.25;;;;;-146.80;100.00;64830.25;5075737;27;45301;-65
2021/09/27 01:11:43;;;;;;;;;11.75;10.25;;;;;-146.80;100.00;64830.25;5091616;27;45655;-65
2021/09/27 01:14:47;;;;;;;;;15.50;11.00;;;;;-146.80;100.00;64830.25;5075274;27;45520;-64
2021/09/27 01:17:33;;;;;;;;;13.50;13.50;;;;;-146.80;100.00;64830.25;5075077;27;45324;-64
2021/09/27 01:20:21;;;;;;;;;12.25;9.75;;;;;-146.80;100.00;64830.25;5091136;27;45367;-64
2021/09/27 01:23:04;;;;;;;;;13.25;11.00;;;;;-146.80;100.00;64830.25;5075618;28;45534;-66
2021/09/27 01:26:07;;;;;;;;;10.75;9.75;;;;;-146.80;100.00;64830.25;5091017;27;45937;-64
2021/09/27 01:29:01;;;;;;;;;13.00;11.25;;;;;-146.80;100.00;64830.25;5075405;27;45383;-66
2021/09/27 01:32:06;;;;;;;;;10.50;10.50;;;;;-146.80;100.00;64830.25;5075593;28;45333;-67
2021/09/27 01:34:50;;;;;;;;;11.25;10.75;;;;;-146.80;100.00;64830.25;5075743;28;45247;-65
2021/09/27 01:37:34;;;;;;;;;12.00;11.00;;;;;-146.80;100.00;64830.25;5073403;28;47084;-65
2021/09/27 01:40:16;;;;;;;;;13.75;11.75;;;;;-146.80;100.00;64830.25;5073780;27;45339;-65
2021/09/27 01:43:00;;;;;;;;;12.50;11.50;;;;;-146.80;100.00;64830.25;5075536;27;45339;-65
2021/09/27 01:45:34;;;;;;;;;17.50;15.25;;;;;-146.80;100.00;64830.25;5076232;27;45343;-65
2021/09/27 01:48:11;;;;;;;;;17.00;14.25;;;;;-146.80;100.00;64830.25;5091303;27;46785;-66
2021/09/27 01:50:54;;;;;;;;;15.50;13.00;;;;;-146.80;100.00;64830.25;5075228;28;45420;-64
2021/09/27 01:53:37;;;;;;;;;15.00;14.00;;;;;-146.80;100.00;64830.25;5090637;27;45344;-64
2021/09/27 01:56:23;;;;;;;;;16.25;14.75;;;;;-146.80;100.00;64830.25;5076196;27;45319;-64
2021/09/27 01:59:02;;;;;;;;;14.00;12.75;;;;;-146.80;100.00;64830.25;5078577;27;46743;-65
2021/09/27 02:01:34;;;;;;;;;18.00;14.25;;;;;-146.80;100.00;64830.25;5078514;27;45478;-65
2021/09/27 02:04:06;;;;;;;;;15.00;12.50;;;;;-146.80;100.00;64830.25;5078756;27;45271;-64
2021/09/27 02:06:37;;;;;;;;;11.50;11.50;;;;;-146.80;100.00;64830.25;5077616;28;45433;-65
2021/09/27 02:09:09;;;;;;;;;12.25;11.25;;;;;-146.80;100.00;64830.25;5078596;28;46192;-64
2021/09/27 02:11:38;;;;;;;;;13.25;11.75;;;;;-146.80;100.00;64830.25;5078409;27;45423;-63
2021/09/27 02:14:12;;;;;;;;;13.50;13.25;;;;;-146.80;100.00;64830.25;5077129;28;45269;-64
2021/09/27 02:16:55;;;;;;;;;13.75;12.50;;;;;-146.80;100.00;64830.25;5078620;27;45366;-64
2021/09/27 02:19:26;;;;;;;;;12.50;12.50;;;;;-146.80;100.00;64830.25;5078092;27;45413;-65
2021/09/27 02:21:58;;;;;;;;;12.00;11.00;;;;;-146.80;100.00;64830.25;5078059;28;45409;-66
2021/09/27 02:24:53;;;;;;;;;16.75;14.25;;;;;-146.80;100.00;64830.25;5078003;28;45342;-64
2021/09/27 02:27:19;;;;;;;;;14.00;13.00;;;;;-146.80;100.00;64830.25;5093738;27;45266;-64
2021/09/27 02:29:44;;;;;;;;;18.00;14.00;;;;;-146.80;100.00;64830.25;5078002;27;46035;-68
2021/09/27 02:32:25;;;;;;;;;17.00;16.00;;;;;-146.80;100.00;64830.25;5078080;27;45219;-63
2021/09/27 02:34:58;;;;;;;;;13.00;12.25;;;;;-146.80;100.00;64830.25;5093399;27;45398;-64
2021/09/27 02:37:37;;;;;;;;;14.00;11.75;;;;;-146.80;100.00;64830.25;5078216;28;45394;-65
2021/09/27 02:40:13;;;;;;;;;11.25;11.00;;;;;-146.80;100.00;64830.25;5077939;28;46119;-64
2021/09/27 02:42:46;;;;;;;;;12.00;10.00;;;;;-146.80;100.00;64830.25;5078358;27;45259;-64
2021/09/27 02:45:13;;;;;;;;;14.75;14.75;;;;;-146.80;100.00;64830.25;5077913;27;45299;-64
2021/09/27 02:47:46;;;;;;;;;14.25;12.25;;;;;-146.80;100.00;64830.25;5078391;27;45456;-65
2021/09/27 02:50:16;;;;;;;;;15.25;13.00;;;;;-146.80;100.00;64830.25;5077291;27;46400;-64
2021/09/27 02:52:41;;;;;;;;;12.50;11.50;;;;;-146.80;100.00;64830.25;5077647;28;45465;-66
2021/09/27 02:55:15;;;;;;;;;15.75;13.00;;;;;-146.80;100.00;64830.25;5077972;27;45528;-64
2021/09/27 02:58:04;;;;;;;;;16.25;12.50;;;;;-146.80;100.00;64830.25;5093661;27;45373;-66
2021/09/27 03:00:56;;;;;;;;;14.00;13.50;;;;;-146.80;100.00;64830.25;5077636;27;45381;-66
2021/09/27 03:03:37;;;;;;;;;12.00;12.00;;;;;-146.80;100.00;64830.25;5066065;27;45473;-64
2021/09/27 03:06:08;;;;;;;;;14.75;12.00;;;;;-146.80;100.00;64830.25;5077701;27;45511;-65
2021/09/27 03:09:01;;;;;;;;;12.25;10.25;;;;;-146.80;100.00;64830.25;5076400;27;45644;-65
2021/09/27 03:12:04;;;;;;;;;17.00;14.50;;;;;-146.80;100.00;64830.25;5077495;27;45549;-64
2021/09/27 03:14:35;;;;;;;;;16.00;11.50;;;;;-146.80;100.00;64830.25;5077586;28;45218;-65
2021/09/27 03:17:18;;;;;;;;;12.75;10.00;;;;;-146.80;100.00;64830.25;5092991;27;45435;-65
2021/09/27 03:20:13;;;;;;;;;13.00;12.50;;;;;-146.80;100.00;64830.25;5078076;27;45437;-63
2021/09/27 03:23:14;;;;;;;;;13.25;11.00;;;;;-146.80;100.00;64830.25;5077103;27;45439;-65
2021/09/27 03:25:52;;;;;;;;;12.00;11.50;;;;;-146.80;100.00;64830.25;5032375;27;45390;-65
2021/09/27 03:28:43;;;;;;;;;14.25;12.25;;;;;-146.80;100.00;64830.25;5075989;27;45665;-65
2021/09/27 03:31:22;;;;;;;;;14.25;12.00;;;;;-146.80;100.00;64830.25;5077938;27;45485;-65
2021/09/27 03:34:16;;;;;;;;;15.00;12.50;;;;;-146.80;100.00;64830.25;5092531;27;47278;-64
2021/09/27 03:36:54;;;;;;;;;14.50;11.00;;;;;-146.80;100.00;64830.25;5076052;28;45319;-64
2021/09/27 03:39:45;;;;;;;;;11.00;9.50;;;;;-146.80;100.00;64830.25;5077098;28;45466;-64
2021/09/27 03:42:34;;;;;;;;;13.25;11.50;;;;;-146.80;100.00;64830.25;5039048;27;45332;-64
2021/09/27 03:45:06;;;;;;;;;10.00;10.00;;;;;-146.80;100.00;64830.25;5076813;28;45386;-65
2021/09/27 03:47:43;;;;;;;;;13.25;10.50;;;;;-146.80;100.00;64830.25;5076693;27;45338;-65
2021/09/27 03:50:17;;;;;;;;;11.50;10.00;;;;;-146.80;100.00;64830.25;5077035;27;45404;-66
2021/09/27 03:52:50;;;;;;;;;13.25;11.75;;;;;-146.80;100.00;64830.25;5093031;27;45489;-64
2021/09/27 03:55:27;;;;;;;;;13.25;12.25;;;;;-146.80;100.00;64830.25;5075121;28;47304;-64
2021/09/27 03:58:02;;;;;;;;;12.75;12.00;;;;;-146.80;100.00;64830.25;5076782;27;45405;-65
2021/09/27 04:00:34;;;;;;;;;10.00;9.00;;;;;-146.80;100.00;64830.25;5077029;28;45499;-65
2021/09/27 04:03:06;;;;;;;;;12.75;11.75;;;;;-146.80;100.00;64830.25;5077107;27;45374;-65
2021/09/27 04:05:43;;;;;;;;;11.75;10.00;;;;;-146.80;100.00;64830.25;5092004;27;46540;-65
2021/09/27 04:08:31;;;;;;;;;12.25;10.50;;;;;-146.80;100.00;64830.25;5092278;27;45290;-64
2021/09/27 04:11:08;;;;;;;;;15.00;11.50;;;;;-146.80;100.00;64830.25;5076451;27;45469;-65
2021/09/27 04:13:54;;;;;;;;;11.75;10.25;;;;;-146.80;100.00;64830.25;5076520;27;45326;-64
2021/09/27 04:17:07;;;;;;;;;15.50;12.75;;;;;-146.80;100.00;64830.25;5076295;27;46317;-64
2021/09/27 04:20:00;;;;;;;;;14.00;12.00;;;;;-146.80;100.00;64830.25;5046238;27;45891;-64
2021/09/27 04:22:31;;;;;;;;;14.25;12.75;;;;;-146.80;100.00;64830.25;5076374;27;45177;-65
2021/09/27 04:25:34;;;;;;;;;11.75;10.75;;;;;-146.80;100.00;64830.25;5076524;28;45440;-64
2021/09/27 04:28:39;;;;;;;;;14.25;11.00;;;;;-146.80;100.00;64830.25;5076181;28;46531;-65
2021/09/27 04:31:26;;;;;;;;;8.00;8.00;;;;;-146.80;100.00;64830.25;5076249;28;45425;-65
2021/09/27 04:34:10;;;;;;;;;11.25;10.00;;;;;-146.80;100.00;64830.25;5076269;27;45444;-65
2021/09/27 04:36:40;;;;;;;;;10.75;9.00;;;;;-146.80;100.00;64830.25;5092106;27;45552;-64
2021/09/27 04:39:15;;;;;;;;;10.00;9.00;;;;;-146.80;100.00;64830.25;5076503;27;46350;-69
2021/09/27 04:42:15;;;;;;;;;9.50;9.25;;;;;-146.80;100.00;64830.25;5076743;27;45275;-64
2021/09/27 04:44:53;;;;;;;;;13.25;9.75;;;;;-146.80;100.00;64830.25;5091715;27;45516;-63
2021/09/27 04:48:03;;;;;;;;;9.00;9.00;;;;;-146.80;100.00;64830.25;5091855;27;45386;-64
2021/09/27 04:50:50;;;;;;;;;11.25;10.25;;;;;-146.80;100.00;64830.25;5050094;27;45810;-65
2021/09/27 04:53:34;;;;;;;;;11.25;11.25;;;;;-146.80;100.00;64830.25;5076396;28;45433;-64
2021/09/27 04:56:34;;;;;;;;;13.50;11.75;;;;;-146.80;100.00;64830.25;5076311;28;45484;-64
2021/09/27 04:59:24;;;;;;;;;20.75;17.75;;;;;-146.80;100.00;64830.25;5076955;27;45219;-65
2021/09/27 05:02:09;;;;;;;;;14.75;13.00;;;;;-146.80;100.00;64830.25;5076081;27;45579;-64
2021/09/27 05:04:43;;;;;;;;;10.25;10.25;;;;;-146.80;100.00;64830.25;5074348;28;45492;-64
2021/09/27 05:07:31;;;;;;;;;13.50;10.50;;;;;-146.80;100.00;64830.25;5076264;28;45427;-65
2021/09/27 05:10:24;;;;;;;;;13.75;11.00;;;;;-146.80;100.00;64830.25;5091710;27;45364;-64
2021/09/27 05:12:49;;;;;;;;;13.75;12.75;;;;;-146.80;100.00;64830.25;5075386;28;45318;-64
2021/09/27 05:15:26;;;;;;;;;12.00;10.00;;;;;-146.80;100.00;64830.25;5075330;27;45438;-66
2021/09/27 05:18:30;;;;;;;;;10.25;8.25;;;;;-146.80;100.00;64830.25;5075821;27;45829;-64
2021/09/27 05:21:29;;;;;;;;;14.25;11.00;;;;;-146.80;100.00;64830.25;5075504;28;45378;-65
2021/09/27 05:24:00;;;;;;;;;15.50;12.25;;;;;-146.80;100.00;64830.25;5075045;27;45355;-65
2021/09/27 05:27:12;;;;;;;;;10.50;10.50;;;;;-146.80;100.00;64830.25;5091105;27;45371;-66
2021/09/27 05:30:10;;;;;;;;;11.50;10.25;;;;;-146.80;100.00;64830.25;5075934;28;45397;-65
2021/09/27 05:33:03;;;;;;;;;9.00;8.00;;;;;-146.80;100.00;64830.25;5075237;27;45500;-64
2021/09/27 05:35:59;;;;;;;;;12.00;9.75;;;;;-146.80;100.00;64830.25;5073711;28;47487;-64
2021/09/27 05:38:41;;;;;;;;;9.00;9.00;;;;;-146.80;100.00;64830.25;5075083;28;45394;-64
2021/09/27 05:41:37;;;;;;;;;12.75;8.00;;;;;-146.80;100.00;64830.25;5075263;27;45381;-64
2021/09/27 05:44:21;;;;;;;;;10.25;9.50;;;;;-146.80;100.00;64830.25;5091421;27;45551;-65
2021/09/27 05:46:49;;;;;;;;;11.75;10.00;;;;;-146.80;100.00;64830.25;5075664;28;46137;-65
2021/09/27 05:49:29;;;;;;;;;14.50;10.25;;;;;-146.80;100.00;64830.25;5075887;27;45277;-65
2021/09/27 05:52:04;;;;;;;;;12.25;9.25;;;;;-146.80;100.00;64830.25;5074392;28;45387;-63
2021/09/27 05:54:53;;;;;;;;;11.75;8.75;;;;;-146.80;100.00;64830.25;5090938;27;45571;-64
2021/09/27 05:57:41;;;;;;;;;9.00;7.00;;;;;-146.80;100.00;64830.25;5075473;27;46765;-63
2021/09/27 06:00:21;;;;;;;;;9.75;8.00;;;;;-146.80;100.00;64830.25;5074920;28;45349;-62
2021/09/27 06:02:56;;;;;;;;;11.50;11.00;;;;;-146.80;100.00;64830.25;5075446;27;45272;-64
2021/09/27 06:05:45;;;;;;;;;9.25;9.25;;;;;-146.80;100.00;64830.25;5075116;27;45523;-66
2021/09/27 06:08:17;;;;;;;;;11.25;10.00;;;;;-146.80;100.00;64830.25;5074591;27;46252;-64
2021/09/27 06:11:07;;;;;;;;;10.25;9.25;;;;;-146.80;100.00;64830.25;5073131;28;45730;-65
2021/09/27 06:13:35;;;;;;;;;12.50;9.75;;;;;-146.80;100.00;64830.25;5075059;27;45387;-64
2021/09/27 06:16:31;;;;;;;;;11.75;9.75;;;;;-146.80;100.00;64830.25;5075488;27;45793;-63
2021/09/27 06:19:45;;;;;;;;;14.50;12.25;;;;;-146.80;100.00;64830.25;5074104;28;46462;-66
2021/09/27 06:22:48;;;;;;;;;8.75;8.00;;;;;-146.80;100.00;64830.25;4992277;28;45739;-65
2021/09/27 06:25:17;;;;;;;;;16.50;12.75;;;;;-146.80;100.00;64830.25;5070397;28;45279;-66
2021/09/27 06:28:08;;;;;;;;;11.00;11.00;;;;;-146.80;100.00;64830.25;5090226;27;45451;-64
2021/09/27 06:30:47;;;;;;;;;14.00;10.50;;;;;-146.80;100.00;64830.25;5073109;28;45365;-62
2021/09/27 06:33:22;;;;;;;;;14.25;9.25;;;;;-146.80;100.00;64830.25;5074387;27;45236;-64
2021/09/27 06:35:50;;;;;;;;;11.75;10.00;;;;;-146.80;100.00;64830.25;5074776;28;45227;-64
2021/09/27 06:38:18;;;;;;;;;8.50;8.50;;;;;-146.80;100.00;64830.25;5089785;27;45627;-65
2021/09/27 06:40:47;;;;;;;;;12.25;11.00;;;;;-146.80;100.00;64830.25;5072800;28;47937;-67
2021/09/27 06:43:19;;;;;;;;;10.25;10.25;;;;;-146.80;100.00;64830.25;5076204;28;45503;-65
2021/09/27 06:45:47;;;;;;;;;9.50;8.75;;;;;-146.80;100.00;64830.25;5077843;27;45449;-64
2021/09/27 06:48:12;;;;;;;;;10.75;8.00;;;;;-146.80;100.00;64830.25;5093867;27;45332;-66
2021/09/27 06:50:37;;;;;;;;;10.00;8.00;;;;;-146.80;100.00;64830.25;5077779;28;45756;-63
2021/09/27 06:53:03;;;;;;;;;9.25;7.00;;;;;-146.80;100.00;64830.25;5078034;27;45682;-64
2021/09/27 06:55:29;;;;;;;;;10.25;6.50;;;;;-146.80;100.00;64830.25;5078171;27;45332;-64
2021/09/27 06:57:54;;;;;;;;;14.50;10.00;;;;;-146.80;100.00;64830.25;5078468;28;45439;-63
2021/09/27 07:00:20;;;;;;;;;8.50;7.25;;;;;-146.80;100.00;64830.25;5078179;28;45398;-64
2021/09/27 07:02:45;;;;;;;;;8.25;7.00;;;;;-146.80;100.00;64830.25;5077553;28;45419;-63
2021/09/27 07:05:12;;;;;;;;;8.75;7.25;;;;;-146.80;100.00;64830.25;5093588;27;45408;-64
2021/09/27 07:07:38;;;;;;;;;7.00;7.00;;;;;-146.80;100.00;64830.25;5077858;27;45529;-63
2021/09/27 07:10:06;;;;;;;;;10.75;10.00;;;;;-146.80;100.00;64830.25;5075920;28;45319;-63
2021/09/27 07:12:32;;;;;;;;;10.00;10.00;;;;;-146.80;100.00;64830.25;5077049;27;45345;-62
2021/09/27 07:14:57;;;;;;;;;5.00;5.00;;;;;-146.80;100.00;64830.25;5077722;27;45152;-63
2021/09/27 07:17:22;;;;;;;;;9.50;8.50;;;;;-146.80;100.00;64830.25;5078300;27;45172;-62
2021/09/27 07:19:48;;;;;;;;;7.25;7.25;;;;;-146.80;100.00;64830.25;5077652;27;45372;-66
2021/09/27 07:22:13;;;;;;;;;9.75;7.00;;;;;-146.80;100.00;64830.25;5093552;27;45501;-62
2021/09/27 07:24:39;;;;;;;;;13.25;9.00;;;;;-146.80;100.00;64830.25;5077721;27;45459;-63
2021/09/27 07:27:05;;;;;;;;;6.25;6.25;;;;;-146.80;100.00;64830.25;5077785;27;45535;-63
2021/09/27 07:29:31;;;;;;;;;9.25;8.50;;;;;-146.80;100.00;64830.25;5077391;27;46479;-65
2021/09/27 07:31:56;;;;;;;;;9.25;8.50;;;;;-146.80;100.00;64830.25;5076149;28;45638;-63
2021/09/27 07:34:22;;;;;;;;;9.75;8.50;;;;;-146.80;100.00;64830.25;5077514;28;45314;-64
2021/09/27 07:36:48;;;;;;;;;10.00;6.75;;;;;-146.80;100.00;64830.25;5077324;28;45537;-65
2021/09/27 07:39:14;;;;;;;;;13.50;12.75;;;;;-146.80;100.00;64830.25;5076582;27;45431;-62
2021/09/27 07:41:40;;;;;;;;;13.50;12.00;;;;;-146.80;100.00;64830.25;5077223;27;45444;-63
2021/09/27 07:44:06;;;;;;;;;7.75;7.50;;;;;-146.80;100.00;64830.25;5077084;27;45249;-63
2021/09/27 07:46:32;;;;;;;;;9.00;8.00;;;;;-146.80;100.00;64830.25;5077208;28;45239;-64
2021/09/27 07:48:58;;;;;;;;;12.00;10.00;;;;;-146.80;100.00;64830.25;5076792;27;46007;-64
2021/09/27 07:51:26;;;;;;;;;14.25;13.50;;;;;-146.80;100.00;64830.25;5077512;27;45417;-63
2021/09/27 07:53:51;;;;;;;;;13.25;11.25;;;;;-146.80;100.00;64830.25;5076427;27;45359;-62
2021/09/27 07:56:18;;;;;;;;;9.25;8.25;;;;;-146.80;100.00;64830.25;5076978;27;45548;-63
2021/09/27 07:58:43;;;;;;;;;12.50;9.75;;;;;-146.80;100.00;64830.25;5076743;27;46235;-63
2021/09/27 08:01:10;;;;;;;;;10.50;10.50;;;;;-146.80;100.00;64830.25;5076683;27;45278;-64
2021/09/27 08:03:36;;;;;;;;;9.75;8.50;;;;;-146.80;100.00;64830.25;5077108;27;45263;-62
2021/09/27 08:06:02;;;;;;;;;9.25;8.25;;;;;-146.80;100.00;64830.25;5092838;27;45270;-65
2021/09/27 08:08:28;;;;;;;;;8.00;8.00;;;;;-146.80;100.00;64830.25;5076680;28;46221;-64
2021/09/27 08:10:53;;;;;;;;;14.00;12.50;;;;;-146.80;100.00;64830.25;5076679;27;45362;-63
2021/09/27 08:13:19;;;;;;;;;9.50;7.75;;;;;-146.80;100.00;64830.25;5076721;27;45383;-65
2021/09/27 08:15:47;;;;;;;;;11.75;9.00;;;;;-146.80;100.00;64830.25;5092258;27;45553;-65
2021/09/27 08:18:13;;;;;;;;;10.00;9.00;;;;;-146.80;100.00;64830.25;5076227;27;45374;-63
2021/09/27 08:20:46;;;;;;;;;10.00;8.75;;;;;-146.80;100.00;64830.25;5074581;28;45319;-63
2021/09/27 08:23:12;;;;;;;;;10.00;9.00;;;;;-146.80;100.00;64830.25;5074849;27;45804;-64
2021/09/27 08:25:38;;;;;;;;;11.00;8.50;;;;;-146.80;100.00;64830.25;5076666;27;45334;-63
2021/09/27 08:28:07;;;;;;;;;9.50;9.50;;;;;-146.80;100.00;64830.25;5076361;27;46267;-62
2021/09/27 08:30:40;;;;;;;;;14.00;10.75;;;;;-146.80;100.00;64830.25;5076487;27;45277;-65
2021/09/27 08:33:06;;;;;;;;;10.25;9.25;;;;;-146.80;100.00;64830.25;5091835;27;45365;-65
2021/09/27 08:35:33;;;;;;;;;11.50;11.25;;;;;-146.80;100.00;64830.25;5076283;27;45407;-64
2021/09/27 08:38:00;;;;;;;;;11.50;10.00;;;;;-146.80;100.00;64830.25;5076175;27;47346;-67
2021/09/27 08:40:31;;;;;;;;;12.75;10.00;;;;;-146.80;100.00;64830.25;5076326;27;45564;-65
2021/09/27 08:43:08;;;;;;;;;13.00;11.50;;;;;-146.80;100.00;64830.25;5076202;27;45227;-64
2021/09/27 08:45:36;;;;;;;;;14.75;10.25;;;;;-146.80;100.00;64830.25;5076287;27;45405;-65
2021/09/27 08:48:37;;;;;;;;;16.00;14.25;;;;;-146.80;100.00;64830.25;5075615;27;45436;-64
2021/09/27 08:51:03;;;;;;;;;11.75;10.00;;;;;-146.80;100.00;64830.25;5059659;27;45348;-65
2021/09/27 08:53:36;;;;;;;;;11.50;10.25;;;;;-146.80;100.00;64830.25;5074660;27;45382;-63
2021/09/27 08:56:13;;;;;;;;;12.50;10.00;;;;;-146.80;100.00;64830.25;5076146;27;45477;-64
2021/09/27 08:58:53;;;;;;;;;10.25;9.75;;;;;-146.80;100.00;64830.25;5075680;27;45630;-62
2021/09/27 09:01:29;;;;;;;;;11.25;9.50;;;;;-146.80;100.00;64830.25;5075710;27;45292;-64
2021/09/27 09:04:03;;;;;;;;;13.50;11.50;;;;;-146.80;100.00;64830.25;5091638;27;45432;-63
2021/09/27 09:06:38;;;;;;;;;14.50;9.25;;;;;-146.80;100.00;64830.25;5091870;27;45437;-64
2021/09/27 09:09:14;;;;;;;;;11.25;11.25;;;;;-146.80;100.00;64830.25;5075387;28;46263;-63
2021/09/27 09:11:54;;;;;;;;;11.25;10.50;;;;;-146.80;100.00;64830.25;5075539;27;45326;-64
2021/09/27 09:14:37;;;;;;;;;14.75;11.75;;;;;-146.80;100.00;64830.25;5075542;27;45340;-63
2021/09/27 09:17:22;;;;;;;;;10.50;10.00;;;;;-146.80;100.00;64830.25;5075882;27;45445;-64
2021/09/27 09:19:48;;;;;;;;;14.25;10.50;;;;;-146.80;100.00;64830.25;5075326;27;45332;-64
2021/09/27 09:22:25;;;;;;;;;11.50;11.50;;;;;-146.80;100.00;64830.25;5075240;27;45637;-63
2021/09/27 09:24:51;;;;;;;;;13.75;12.25;;;;;-146.80;100.00;64830.25;5075605;27;45288;-63
2021/09/27 09:27:16;;;;;;;;;10.50;10.00;;;;;-146.80;100.00;64830.25;5075556;27;45305;-65
2021/09/27 09:29:45;;;;;;;;;9.00;8.00;;;;;-146.80;100.00;64830.25;5075307;28;45684;-65
2021/09/27 09:32:19;;;;;;;;;12.25;8.25;;;;;-146.80;100.00;64830.25;5075655;27;45219;-63
2021/09/27 09:34:47;;;;;;;;;11.00;9.75;;;;;-146.80;100.00;64830.25;5075298;27;45243;-63
2021/09/27 09:37:36;;;;;;;;;12.75;11.00;;;;;-146.80;100.00;64830.25;5075467;27;45315;-62
2021/09/27 09:40:29;;;;;;;;;12.25;11.25;;;;;-146.80;100.00;64830.25;5074794;28;46108;-63
2021/09/27 09:43:23;;;;;;;;;11.50;11.50;;;;;-146.80;100.00;64830.25;5074757;28;45431;-65
2021/09/27 09:46:02;;;;;;;;;11.25;9.75;;;;;-146.80;100.00;64830.25;5075198;27;45295;-65
2021/09/27 09:48:28;;;;;;;;;13.25;9.25;;;;;-146.80;100.00;64830.25;5075237;27;45466;-64
2021/09/27 09:50:57;;;;;;;;;10.00;8.75;;;;;-146.80;100.00;64830.25;5074880;27;46486;-63
2021/09/27 09:53:31;;;;;;;;;13.75;11.75;;;;;-146.80;100.00;64830.25;5075007;27;45338;-64
2021/09/27 09:56:06;;;;;;;;;15.50;14.50;;;;;-146.80;100.00;64830.25;5074056;28;45731;-64
2021/09/27 09:58:38;;;;;;;;;18.25;14.00;;;;;-146.80;100.00;64830.25;5075408;27;45571;-63
2021/09/27 10:01:19;;;;;;;;;9.25;9.00;;;;;-146.80;100.00;64830.25;5075386;27;45556;-65
2021/09/27 10:04:06;;;;;;;;;12.75;12.25;;;;;-146.80;100.00;64830.25;5075390;27;45422;-63
2021/09/27 10:06:42;;;;;;;;;8.00;8.00;;;;;-146.80;100.00;64830.25;5074945;27;45396;-64
2021/09/27 10:09:16;;;;;;;;;11.00;8.25;;;;;-146.80;100.00;64830.25;5075262;27;45277;-64
2021/09/27 10:11:50;;;;;;;;;8.00;8.00;;;;;-146.80;100.00;64830.25;5074852;27;46592;-65
2021/09/27 10:14:38;;;;;;;;;6.00;6.00;;;;;-146.80;100.00;64830.25;5074598;27;45421;-64
2021/09/27 10:17:14;;;;;;;;;9.75;9.50;;;;;-146.80;100.00;64830.25;5075527;28;45590;-63
2021/09/27 10:19:55;;;;;;;;;9.00;9.00;;;;;-146.80;100.00;64830.25;5078588;27;45204;-65
2021/09/27 10:22:24;;;;;;;;;8.50;8.00;;;;;-146.80;100.00;64830.25;5078204;27;47133;-65
2021/09/27 10:24:56;;;;;;;;;9.00;8.50;;;;;-146.80;100.00;64830.25;5078397;27;45376;-64
2021/09/27 10:27:27;;;;;;;;;8.25;7.50;;;;;-146.80;100.00;64830.25;5078071;27;45320;-64
2021/09/27 10:29:55;;;;;;;;;9.75;8.00;;;;;-146.80;100.00;64830.25;5093937;27;45625;-64
2021/09/27 10:32:54;;;;;;;;;8.00;7.50;;;;;-146.80;100.00;64830.25;5077698;27;46175;-63
2021/09/27 10:35:40;;;;;;;;;10.75;8.00;;;;;-146.80;100.00;64830.25;5033644;27;45282;-64
2021/09/27 10:38:12;;;;;;;;;10.25;8.75;;;;;-146.80;100.00;64830.25;5078183;27;45372;-64
2021/09/27 10:40:44;;;;;;;;;11.00;9.25;;;;;-146.80;100.00;64830.25;5078391;27;45381;-63
2021/09/27 10:43:15;;;;;;;;;12.00;11.25;;;;;-146.80;100.00;64830.25;5077587;27;45484;-62
2021/09/27 10:45:43;;;;;;;;;13.00;11.50;;;;;-146.80;100.00;64830.25;5093886;27;45476;-63
2021/09/27 10:48:10;;;;;;;;;12.50;11.00;;;;;-146.80;100.00;64830.25;5078115;28;46034;-66
2021/09/27 10:50:42;;;;;;;;;15.75;15.00;;;;;-146.80;100.00;64830.25;5059873;28;45658;-66
2021/09/27 10:53:14;;;;;;;;;10.00;10.00;;;;;-146.80;100.00;64830.25;5077733;27;45286;-66
2021/09/27 10:56:04;;;;;;;;;11.00;9.50;;;;;-146.80;100.00;64830.25;5077530;28;45188;-63
2021/09/27 10:58:33;;;;;;;;;9.75;8.25;;;;;-146.80;100.00;64830.25;5077929;28;45377;-64
2021/09/27 11:00:59;;;;;;;;;11.50;10.00;;;;;-146.80;100.00;64830.25;5078110;27;45202;-64
2021/09/27 11:03:31;;;;;;;;;14.75;13.00;;;;;-146.80;100.00;64830.25;5059503;28;46073;-64
2021/09/27 11:06:12;;;;;;;;;9.50;9.00;;;;;-146.80;100.00;64830.25;5077784;28;45437;-65
2021/09/27 11:09:09;;;;;;;;;13.25;10.00;;;;;-146.80;100.00;64830.25;5077592;28;45180;-64
2021/09/27 11:11:44;;;;;;;;;11.00;8.75;;;;;-146.80;100.00;64830.25;5077942;27;45303;-62
2021/09/27 11:14:24;;;;;;;;;10.00;10.00;;;;;-146.80;100.00;64830.25;5077458;27;45430;-64
2021/09/27 11:17:12;;;;;;;;;11.50;9.50;;;;;-146.80;100.00;64830.25;5076944;27;45258;-64
2021/09/27 11:19:41;;;;;;;;;9.50;9.50;;;;;-146.80;100.00;64830.25;5077427;27;45432;-64
2021/09/27 11:22:13;;;;;;;;;7.00;5.75;;;;;-146.80;100.00;64830.25;5076033;28;45574;-63
2021/09/27 11:24:44;;;;;;;;;7.75;7.75;;;;;-146.80;100.00;64830.25;5077292;28;46134;-63
2021/09/27 11:27:32;;;;;;;;;9.25;7.75;;;;;-146.80;100.00;64830.25;5077675;27;45403;-64
2021/09/27 11:30:20;;;;;;;;;10.75;8.50;;;;;-146.80;100.00;64830.25;5074884;28;45524;-64
2021/09/27 11:32:50;;;;;;;;;6.75;3.75;;;;;-146.80;100.00;64830.25;5077541;27;45573;-63
2021/09/27 11:35:41;;;;;;;;;2.50;1.00;;;;;-146.80;100.00;64830.25;5076786;27;46665;-65
2021/09/27 11:38:36;;;;;;;;;3.50;0.50;;;;;-146.80;100.00;64830.25;5092983;27;45433;-65
2021/09/27 11:41:22;;;;;;;;;3.00;2.00;;;;;-146.80;100.00;64830.25;5077623;27;45424;-64
2021/09/27 11:44:08;;;;;;;;;3.00;3.00;;;;;-146.80;100.00;64830.25;5092679;27;45479;-65